PWSweather.com
Personal Weather Stations
Station Observations
KTXDECATUR
Wildwood, Decatur, TX 76234

WildwoodDecatur, TX 76234

Lat: 33.2634, Lon: -97.6651

Elevation: 800

Station Type: Davis Vantage Pro 2

http://weather.wildwoodnaturist.com

Latest ConditionsUpdated 7:50:00 PM CDT Thursday, Jul 30, 2015
Currently Today's Max Today's Min Today's Average
Temperature 95.6°F35.3°C 100.2°F37.9°C 71.3°F21.8°C 86.3°F30.2°C
Dew Point 76.3°F24.6°C 78.0°F25.6°C 67.9°F19.9°C 71.3°F21.8°C
Winds Calm Calm 5.8 mph SW9.3 kmh SW - 1.3 mph 2.1 kmh
Wind Gusts -- 9.2 mph14.8 kmh - -
Humidity 54% 91% 39% 65%
Pressure 29.92 in1013.2 mb 30.04 in1017.3 mb 29.91 in1012.9 mb -
Hour Temp Dew Point Humidity Winds Wind Gusts Pressure Precip Precip Rate Daily Precip Total
07:50 PM 95.6°F35.3°C 76.3°F24.6°C 54% Calm Calm -- 29.92 in1013.2 mb - 0.00 in0.0 mm 0.00 in0.0 mm
07:45 PM 96.0°F35.6°C 76.1°F24.5°C 53% Calm Calm -- 29.92 in1013.2 mb - 0.00 in0.0 mm 0.00 in0.0 mm
07:40 PM 96.7°F35.9°C 75.0°F23.9°C 50% Calm Calm -- 29.92 in1013.2 mb - 0.00 in0.0 mm 0.00 in0.0 mm
07:30 PM 97.9°F36.6°C 73.6°F23.1°C 46% Calm Calm -- 29.92 in1013.2 mb - 0.00 in0.0 mm 0.00 in0.0 mm
07:20 PM 98.2°F36.8°C 72.6°F22.6°C 44% 1.2 mph NE1.9 kmh NE 3.5 mph5.6 kmh 29.91 in1012.9 mb - 0.00 in0.0 mm 0.00 in0.0 mm
07:15 PM 98.6°F37.0°C 73.6°F23.1°C 45% 2.3 mph NE3.7 kmh NE 3.5 mph5.6 kmh 29.92 in1013.2 mb - 0.00 in0.0 mm 0.00 in0.0 mm
07:10 PM 98.7°F37.1°C 73.7°F23.2°C 45% 2.3 mph NE3.7 kmh NE 3.5 mph5.6 kmh 29.92 in1013.2 mb - 0.00 in0.0 mm 0.00 in0.0 mm
07:00 PM 98.7°F37.1°C 73.0°F22.8°C 44% Calm Calm -- 29.92 in1013.2 mb - 0.00 in0.0 mm 0.00 in0.0 mm
06:50 PM 99.0°F37.2°C 73.3°F22.9°C 44% Calm Calm -- 29.92 in1013.2 mb - 0.00 in0.0 mm 0.00 in0.0 mm
06:45 PM 99.2°F37.3°C 72.8°F22.7°C 43% 1.2 mph NE1.9 kmh NE 2.3 mph3.7 kmh 29.92 in1013.2 mb - 0.00 in0.0 mm 0.00 in0.0 mm
06:40 PM 99.4°F37.4°C 72.2°F22.3°C 42% 2.3 mph NE3.7 kmh NE 2.3 mph3.7 kmh 29.92 in1013.2 mb - 0.00 in0.0 mm 0.00 in0.0 mm
06:30 PM 98.9°F37.2°C 72.5°F22.5°C 43% 2.3 mph NE3.7 kmh NE 2.3 mph3.7 kmh 29.92 in1013.2 mb - 0.00 in0.0 mm 0.00 in0.0 mm
06:20 PM 98.5°F36.9°C 73.5°F23.1°C 45% Calm Calm -- 29.93 in1013.5 mb - 0.00 in0.0 mm 0.00 in0.0 mm
06:15 PM 98.8°F37.1°C 72.4°F22.4°C 43% 2.3 mph NE3.7 kmh NE 3.5 mph5.6 kmh 29.93 in1013.5 mb - 0.00 in0.0 mm 0.00 in0.0 mm
06:10 PM 99.1°F37.3°C 72.0°F22.2°C 42% Calm Calm 3.5 mph5.6 kmh 29.93 in1013.5 mb - 0.00 in0.0 mm 0.00 in0.0 mm
06:00 PM 99.3°F37.4°C 72.1°F22.3°C 42% 2.3 mph NE3.7 kmh NE 4.6 mph7.4 kmh 29.92 in1013.2 mb - 0.00 in0.0 mm 0.00 in0.0 mm
05:50 PM 100.0°F37.8°C 72.1°F22.3°C 41% Calm Calm -- 29.92 in1013.2 mb - 0.00 in0.0 mm 0.00 in0.0 mm
05:45 PM 100.0°F37.8°C 71.3°F21.8°C 40% Calm Calm -- 29.92 in1013.2 mb - 0.00 in0.0 mm 0.00 in0.0 mm
05:40 PM 99.8°F37.7°C 70.4°F21.3°C 39% 2.3 mph W3.7 kmh W 2.3 mph3.7 kmh 29.93 in1013.5 mb - 0.00 in0.0 mm 0.00 in0.0 mm
05:30 PM 99.6°F37.6°C 71.8°F22.1°C 41% 3.5 mph WNW5.6 kmh WNW 3.5 mph5.6 kmh 29.93 in1013.5 mb - 0.00 in0.0 mm 0.00 in0.0 mm
05:20 PM 99.4°F37.4°C 70.0°F21.1°C 39% Calm Calm 1.2 mph1.9 kmh 29.93 in1013.5 mb - 0.00 in0.0 mm 0.00 in0.0 mm
05:15 PM 99.4°F37.4°C 70.8°F21.6°C 40% 2.3 mph SSW3.7 kmh SSW 3.5 mph5.6 kmh 29.93 in1013.5 mb - 0.00 in0.0 mm 0.00 in0.0 mm
05:10 PM 99.5°F37.5°C 70.9°F21.6°C 40% Calm Calm -- 29.93 in1013.5 mb - 0.00 in0.0 mm 0.00 in0.0 mm
05:00 PM 99.4°F37.4°C 70.8°F21.6°C 40% 5.8 mph SW9.3 kmh SW 6.9 mph11.1 kmh 29.94 in1013.9 mb - 0.00 in0.0 mm 0.00 in0.0 mm
04:50 PM 99.6°F37.6°C 71.0°F21.7°C 40% 3.5 mph SW5.6 kmh SW 5.8 mph9.3 kmh 29.94 in1013.9 mb - 0.00 in0.0 mm 0.00 in0.0 mm
04:45 PM 100.2°F37.9°C 73.0°F22.8°C 42% 5.8 mph SW9.3 kmh SW 8.1 mph13.0 kmh 29.94 in1013.9 mb - 0.00 in0.0 mm 0.00 in0.0 mm
04:40 PM 100.0°F37.8°C 72.8°F22.7°C 42% 5.8 mph SW9.3 kmh SW 6.9 mph11.1 kmh 29.94 in1013.9 mb - 0.00 in0.0 mm 0.00 in0.0 mm
04:30 PM 99.8°F37.7°C 71.1°F21.7°C 40% 4.6 mph WSW7.4 kmh WSW 8.1 mph13.0 kmh 29.94 in1013.9 mb - 0.00 in0.0 mm 0.00 in0.0 mm
04:20 PM 99.5°F37.5°C 72.3°F22.4°C 42% 3.5 mph SW5.6 kmh SW 6.9 mph11.1 kmh 29.95 in1014.2 mb - 0.00 in0.0 mm 0.00 in0.0 mm
04:15 PM 99.7°F37.6°C 71.8°F22.1°C 41% 4.6 mph WSW7.4 kmh WSW 6.9 mph11.1 kmh 29.95 in1014.2 mb - 0.00 in0.0 mm 0.00 in0.0 mm
04:10 PM 99.6°F37.6°C 71.7°F22.1°C 41% 5.8 mph SW9.3 kmh SW 9.2 mph14.8 kmh 29.95 in1014.2 mb - 0.00 in0.0 mm 0.00 in0.0 mm
04:00 PM 99.1°F37.3°C 72.0°F22.2°C 42% 2.3 mph WNW3.7 kmh WNW 6.9 mph11.1 kmh 29.96 in1014.6 mb - 0.00 in0.0 mm 0.00 in0.0 mm
03:50 PM 98.5°F36.9°C 71.5°F21.9°C 42% 2.3 mph N3.7 kmh N 4.6 mph7.4 kmh 29.96 in1014.6 mb - 0.00 in0.0 mm 0.00 in0.0 mm
03:45 PM 98.4°F36.9°C 72.8°F22.7°C 44% 4.6 mph N7.4 kmh N 5.8 mph9.3 kmh 29.96 in1014.6 mb - 0.00 in0.0 mm 0.00 in0.0 mm
03:40 PM 97.8°F36.6°C 70.8°F21.6°C 42% 2.3 mph N3.7 kmh N 6.9 mph11.1 kmh 29.97 in1014.9 mb - 0.00 in0.0 mm 0.00 in0.0 mm
03:30 PM 98.4°F36.9°C 70.6°F21.4°C 41% 3.5 mph SSW5.6 kmh SSW 6.9 mph11.1 kmh 29.97 in1014.9 mb - 0.00 in0.0 mm 0.00 in0.0 mm
03:20 PM 98.5°F36.9°C 70.0°F21.1°C 40% 4.6 mph SSW7.4 kmh SSW 5.8 mph9.3 kmh 29.98 in1015.2 mb - 0.00 in0.0 mm 0.00 in0.0 mm
03:15 PM 97.8°F36.6°C 70.1°F21.2°C 41% 1.2 mph SSW1.9 kmh SSW 3.5 mph5.6 kmh 29.98 in1015.2 mb - 0.00 in0.0 mm 0.00 in0.0 mm
03:10 PM 97.1°F36.2°C 72.8°F22.7°C 46% 2.3 mph W3.7 kmh W 4.6 mph7.4 kmh 29.98 in1015.2 mb - 0.00 in0.0 mm 0.00 in0.0 mm
03:00 PM 97.7°F36.5°C 71.4°F21.9°C 43% 2.3 mph N3.7 kmh N 3.5 mph5.6 kmh 29.98 in1015.2 mb - 0.00 in0.0 mm 0.00 in0.0 mm
02:50 PM 97.6°F36.4°C 70.7°F21.5°C 42% 3.5 mph NNE5.6 kmh NNE 5.8 mph9.3 kmh 29.99 in1015.6 mb - 0.00 in0.0 mm 0.00 in0.0 mm
02:45 PM 98.0°F36.7°C 70.3°F21.3°C 41% 2.3 mph ESE3.7 kmh ESE 3.5 mph5.6 kmh 29.99 in1015.6 mb - 0.00 in0.0 mm 0.00 in0.0 mm
02:40 PM 98.0°F36.7°C 70.3°F21.3°C 41% 1.2 mph SSW1.9 kmh SSW 4.6 mph7.4 kmh 29.99 in1015.6 mb - 0.00 in0.0 mm 0.00 in0.0 mm
02:30 PM 97.8°F36.6°C 70.1°F21.2°C 41% 2.3 mph SE3.7 kmh SE 4.6 mph7.4 kmh 29.99 in1015.6 mb - 0.00 in0.0 mm 0.00 in0.0 mm
02:20 PM 98.3°F36.8°C 71.3°F21.8°C 42% 2.3 mph SSW3.7 kmh SSW 3.5 mph5.6 kmh 30.00 in1015.9 mb - 0.00 in0.0 mm 0.00 in0.0 mm
02:15 PM 98.1°F36.7°C 71.1°F21.7°C 42% 2.3 mph WSW3.7 kmh WSW 4.6 mph7.4 kmh 30.00 in1015.9 mb - 0.00 in0.0 mm 0.00 in0.0 mm
02:10 PM 97.3°F36.3°C 69.7°F20.9°C 41% 1.2 mph NW1.9 kmh NW 4.6 mph7.4 kmh 30.00 in1015.9 mb - 0.00 in0.0 mm 0.00 in0.0 mm
02:00 PM 97.8°F36.6°C 69.4°F20.8°C 40% 1.2 mph SW1.9 kmh SW 3.5 mph5.6 kmh 30.00 in1015.9 mb - 0.00 in0.0 mm 0.00 in0.0 mm
01:50 PM 97.0°F36.1°C 71.5°F21.9°C 44% 3.5 mph SSE5.6 kmh SSE 5.8 mph9.3 kmh 30.00 in1015.9 mb - 0.00 in0.0 mm 0.00 in0.0 mm
01:45 PM 97.4°F36.3°C 69.0°F20.6°C 40% 2.3 mph SE3.7 kmh SE 4.6 mph7.4 kmh 30.00 in1015.9 mb - 0.00 in0.0 mm 0.00 in0.0 mm
01:40 PM 97.4°F36.3°C 69.0°F20.6°C 40% 2.3 mph ESE3.7 kmh ESE 9.2 mph14.8 kmh 30.01 in1016.3 mb - 0.00 in0.0 mm 0.00 in0.0 mm
01:30 PM 97.5°F36.4°C 73.3°F22.9°C 46% 5.8 mph SE9.3 kmh SE 8.1 mph13.0 kmh 30.01 in1016.3 mb - 0.00 in0.0 mm 0.00 in0.0 mm
01:20 PM 96.9°F36.1°C 70.7°F21.5°C 43% Calm Calm 4.6 mph7.4 kmh 30.01 in1016.3 mb - 0.00 in0.0 mm 0.00 in0.0 mm
01:15 PM 97.0°F36.1°C 70.8°F21.6°C 43% 3.5 mph ESE5.6 kmh ESE 3.5 mph5.6 kmh 30.01 in1016.3 mb - 0.00 in0.0 mm 0.00 in0.0 mm
01:10 PM 96.8°F36.0°C 72.6°F22.6°C 46% 5.8 mph SE9.3 kmh SE 8.1 mph13.0 kmh 30.01 in1016.3 mb - 0.00 in0.0 mm 0.00 in0.0 mm
01:00 PM 96.3°F35.7°C 70.8°F21.6°C 44% 2.3 mph WSW3.7 kmh WSW 3.5 mph5.6 kmh 30.02 in1016.6 mb - 0.00 in0.0 mm 0.00 in0.0 mm
12:50 PM 96.7°F35.9°C 74.4°F23.6°C 49% 4.6 mph SW7.4 kmh SW 8.1 mph13.0 kmh 30.02 in1016.6 mb - 0.00 in0.0 mm 0.00 in0.0 mm
12:45 PM 96.1°F35.6°C 75.0°F23.9°C 51% Calm Calm 1.2 mph1.9 kmh 30.02 in1016.6 mb - 0.00 in0.0 mm 0.00 in0.0 mm
12:40 PM 95.8°F35.4°C 74.2°F23.4°C 50% 2.3 mph NNE3.7 kmh NNE 3.5 mph5.6 kmh 30.02 in1016.6 mb - 0.00 in0.0 mm 0.00 in0.0 mm
12:30 PM 95.3°F35.2°C 74.3°F23.5°C 51% 3.5 mph W5.6 kmh W 5.8 mph9.3 kmh 30.02 in1016.6 mb - 0.00 in0.0 mm 0.00 in0.0 mm
12:20 PM 95.2°F35.1°C 71.2°F21.8°C 46% 2.3 mph WSW3.7 kmh WSW 3.5 mph5.6 kmh 30.03 in1016.9 mb - 0.00 in0.0 mm 0.00 in0.0 mm
12:15 PM 96.1°F35.6°C 73.2°F22.9°C 48% Calm Calm -- 30.02 in1016.6 mb - 0.00 in0.0 mm 0.00 in0.0 mm
12:10 PM 96.0°F35.6°C 75.0°F23.9°C 51% 3.5 mph SSW5.6 kmh SSW 4.6 mph7.4 kmh 30.03 in1016.9 mb - 0.00 in0.0 mm 0.00 in0.0 mm
12:00 PM 94.6°F34.8°C 73.7°F23.2°C 51% 2.3 mph WSW3.7 kmh WSW 4.6 mph7.4 kmh 30.03 in1016.9 mb - 0.00 in0.0 mm 0.00 in0.0 mm
11:50 AM 94.8°F34.9°C 74.4°F23.6°C 52% Calm Calm 3.5 mph5.6 kmh 30.03 in1016.9 mb - 0.00 in0.0 mm 0.00 in0.0 mm
11:45 AM 94.8°F34.9°C 76.1°F24.5°C 55% 3.5 mph S5.6 kmh S 4.6 mph7.4 kmh 30.03 in1016.9 mb - 0.00 in0.0 mm 0.00 in0.0 mm
11:40 AM 94.4°F34.7°C 75.2°F24.0°C 54% 1.2 mph SW1.9 kmh SW 5.8 mph9.3 kmh 30.03 in1016.9 mb - 0.00 in0.0 mm 0.00 in0.0 mm
11:30 AM 93.7°F34.3°C 76.2°F24.6°C 57% 2.3 mph SW3.7 kmh SW 6.9 mph11.1 kmh 30.03 in1016.9 mb - 0.00 in0.0 mm 0.00 in0.0 mm
11:20 AM 93.7°F34.3°C 76.2°F24.6°C 57% 4.6 mph WNW7.4 kmh WNW 6.9 mph11.1 kmh 30.03 in1016.9 mb - 0.00 in0.0 mm 0.00 in0.0 mm
11:15 AM 93.5°F34.2°C 76.5°F24.7°C 58% 5.8 mph SW9.3 kmh SW 8.1 mph13.0 kmh 30.03 in1016.9 mb - 0.00 in0.0 mm 0.00 in0.0 mm
11:10 AM 93.1°F33.9°C 77.2°F25.1°C 60% 4.6 mph WSW7.4 kmh WSW 6.9 mph11.1 kmh 30.03 in1016.9 mb - 0.00 in0.0 mm 0.00 in0.0 mm
11:00 AM 92.9°F33.8°C 78.0°F25.6°C 62% 3.5 mph SW5.6 kmh SW 8.1 mph13.0 kmh 30.03 in1016.9 mb - 0.00 in0.0 mm 0.00 in0.0 mm
10:50 AM 92.3°F33.5°C 76.4°F24.7°C 60% 4.6 mph W7.4 kmh W 8.1 mph13.0 kmh 30.03 in1016.9 mb - 0.00 in0.0 mm 0.00 in0.0 mm
10:45 AM 92.1°F33.4°C 76.7°F24.8°C 61% 4.6 mph WSW7.4 kmh WSW 8.1 mph13.0 kmh 30.04 in1017.3 mb - 0.00 in0.0 mm 0.00 in0.0 mm
10:40 AM 91.7°F33.2°C 76.8°F24.9°C 62% 5.8 mph W9.3 kmh W 8.1 mph13.0 kmh 30.04 in1017.3 mb - 0.00 in0.0 mm 0.00 in0.0 mm
10:30 AM 90.9°F32.7°C 76.1°F24.5°C 62% 4.6 mph W7.4 kmh W 5.8 mph9.3 kmh 30.04 in1017.3 mb - 0.00 in0.0 mm 0.00 in0.0 mm
10:20 AM 90.8°F32.7°C 76.5°F24.7°C 63% 2.3 mph W3.7 kmh W 6.9 mph11.1 kmh 30.04 in1017.3 mb - 0.00 in0.0 mm 0.00 in0.0 mm
10:15 AM 90.5°F32.5°C 75.7°F24.3°C 62% 3.5 mph WSW5.6 kmh WSW 6.9 mph11.1 kmh 30.04 in1017.3 mb - 0.00 in0.0 mm 0.00 in0.0 mm
10:10 AM 90.1°F32.3°C 76.3°F24.6°C 64% Calm Calm 1.2 mph1.9 kmh 30.04 in1017.3 mb - 0.00 in0.0 mm 0.00 in0.0 mm
10:00 AM 88.7°F31.5°C 75.9°F24.4°C 66% 3.5 mph WSW5.6 kmh WSW 5.8 mph9.3 kmh 30.03 in1016.9 mb - 0.00 in0.0 mm 0.00 in0.0 mm
09:50 AM 87.8°F31.0°C 75.9°F24.4°C 68% 1.2 mph W1.9 kmh W 2.3 mph3.7 kmh 30.04 in1017.3 mb - 0.00 in0.0 mm 0.00 in0.0 mm
09:45 AM 87.1°F30.6°C 74.8°F23.8°C 67% 2.3 mph W3.7 kmh W 3.5 mph5.6 kmh 30.04 in1017.3 mb - 0.00 in0.0 mm 0.00 in0.0 mm
09:40 AM 86.6°F30.3°C 74.3°F23.5°C 67% 2.3 mph W3.7 kmh W 3.5 mph5.6 kmh 30.03 in1016.9 mb - 0.00 in0.0 mm 0.00 in0.0 mm
09:30 AM 85.8°F29.9°C 74.0°F23.3°C 68% Calm Calm 3.5 mph5.6 kmh 30.04 in1017.3 mb - 0.00 in0.0 mm 0.00 in0.0 mm
09:20 AM 84.9°F29.4°C 73.6°F23.1°C 69% Calm Calm 1.2 mph1.9 kmh 30.04 in1017.3 mb - 0.00 in0.0 mm 0.00 in0.0 mm
09:15 AM 84.8°F29.3°C 73.9°F23.3°C 70% Calm Calm 2.3 mph3.7 kmh 30.03 in1016.9 mb - 0.00 in0.0 mm 0.00 in0.0 mm
09:10 AM 84.6°F29.2°C 73.7°F23.2°C 70% 1.2 mph W1.9 kmh W 2.3 mph3.7 kmh 30.03 in1016.9 mb - 0.00 in0.0 mm 0.00 in0.0 mm
09:00 AM 84.4°F29.1°C 74.0°F23.3°C 71% Calm Calm -- 30.03 in1016.9 mb - 0.00 in0.0 mm 0.00 in0.0 mm
08:50 AM 82.9°F28.3°C 74.1°F23.4°C 75% Calm Calm -- 30.03 in1016.9 mb - 0.00 in0.0 mm 0.00 in0.0 mm
08:45 AM 81.7°F27.6°C 74.1°F23.4°C 78% Calm Calm -- 30.03 in1016.9 mb - 0.00 in0.0 mm 0.00 in0.0 mm
08:40 AM 80.6°F27.0°C 73.9°F23.3°C 80% Calm Calm -- 30.03 in1016.9 mb - 0.00 in0.0 mm 0.00 in0.0 mm
08:30 AM 78.9°F26.1°C 73.7°F23.2°C 84% Calm Calm -- 30.03 in1016.9 mb - 0.00 in0.0 mm 0.00 in0.0 mm
08:20 AM 78.0°F25.6°C 72.7°F22.6°C 84% Calm Calm -- 30.02 in1016.6 mb - 0.00 in0.0 mm 0.00 in0.0 mm
08:15 AM 77.7°F25.4°C 72.8°F22.7°C 85% Calm Calm -- 30.02 in1016.6 mb - 0.00 in0.0 mm 0.00 in0.0 mm
08:10 AM 77.3°F25.2°C 72.8°F22.7°C 86% Calm Calm -- 30.02 in1016.6 mb - 0.00 in0.0 mm 0.00 in0.0 mm
08:00 AM 76.2°F24.6°C 72.0°F22.2°C 87% Calm Calm -- 30.01 in1016.3 mb - 0.00 in0.0 mm 0.00 in0.0 mm
07:50 AM 75.4°F24.1°C 71.6°F22.0°C 88% Calm Calm -- 30.01 in1016.3 mb - 0.00 in0.0 mm 0.00 in0.0 mm
07:45 AM 74.8°F23.8°C 71.3°F21.8°C 89% Calm Calm -- 30.01 in1016.3 mb - 0.00 in0.0 mm 0.00 in0.0 mm
07:40 AM 74.1°F23.4°C 71.0°F21.7°C 90% Calm Calm -- 30.01 in1016.3 mb - 0.00 in0.0 mm 0.00 in0.0 mm
07:30 AM 72.9°F22.7°C 70.2°F21.2°C 91% Calm Calm -- 30.00 in1015.9 mb - 0.00 in0.0 mm 0.00 in0.0 mm
07:20 AM 72.1°F22.3°C 69.3°F20.7°C 91% Calm Calm -- 30.00 in1015.9 mb - 0.00 in0.0 mm 0.00 in0.0 mm
07:15 AM 71.8°F22.1°C 69.0°F20.6°C 91% Calm Calm -- 30.00 in1015.9 mb - 0.00 in0.0 mm 0.00 in0.0 mm
07:10 AM 71.5°F21.9°C 68.7°F20.4°C 91% Calm Calm -- 30.00 in1015.9 mb - 0.00 in0.0 mm 0.00 in0.0 mm
07:00 AM 71.3°F21.8°C 68.5°F20.3°C 91% Calm Calm -- 30.00 in1015.9 mb - 0.00 in0.0 mm 0.00 in0.0 mm
06:50 AM 71.3°F21.8°C 68.2°F20.1°C 90% Calm Calm -- 30.00 in1015.9 mb - 0.00 in0.0 mm 0.00 in0.0 mm
06:45 AM 71.3°F21.8°C 68.2°F20.1°C 90% Calm Calm -- 30.00 in1015.9 mb - 0.00 in0.0 mm 0.00 in0.0 mm
06:40 AM 71.3°F21.8°C 68.2°F20.1°C 90% Calm Calm -- 30.00 in1015.9 mb - 0.00 in0.0 mm 0.00 in0.0 mm
06:30 AM 71.3°F21.8°C 68.2°F20.1°C 90% Calm Calm -- 29.99 in1015.6 mb - 0.00 in0.0 mm 0.00 in0.0 mm
06:20 AM 71.3°F21.8°C 68.2°F20.1°C 90% Calm Calm -- 29.99 in1015.6 mb - 0.00 in0.0 mm 0.00 in0.0 mm
06:15 AM 71.3°F21.8°C 68.2°F20.1°C 90% Calm Calm -- 29.99 in1015.6 mb - 0.00 in0.0 mm 0.00 in0.0 mm
06:10 AM 71.3°F21.8°C 68.2°F20.1°C 90% Calm Calm -- 29.99 in1015.6 mb - 0.00 in0.0 mm 0.00 in0.0 mm
06:00 AM 71.4°F21.9°C 68.0°F20.0°C 89% Calm Calm -- 29.98 in1015.2 mb - 0.00 in0.0 mm 0.00 in0.0 mm
05:50 AM 71.7°F22.1°C 67.9°F19.9°C 88% Calm Calm -- 29.98 in1015.2 mb - 0.00 in0.0 mm 0.00 in0.0 mm
05:45 AM 71.8°F22.1°C 68.1°F20.1°C 88% Calm Calm -- 29.98 in1015.2 mb - 0.00 in0.0 mm 0.00 in0.0 mm
05:40 AM 71.9°F22.2°C 68.2°F20.1°C 88% Calm Calm -- 29.98 in1015.2 mb - 0.00 in0.0 mm 0.00 in0.0 mm
05:30 AM 72.0°F22.2°C 68.6°F20.3°C 89% Calm Calm -- 29.98 in1015.2 mb - 0.00 in0.0 mm 0.00 in0.0 mm
05:20 AM 72.0°F22.2°C 68.5°F20.3°C 89% Calm Calm -- 29.98 in1015.2 mb - 0.00 in0.0 mm 0.00 in0.0 mm
05:15 AM 72.0°F22.2°C 68.6°F20.3°C 89% Calm Calm -- 29.98 in1015.2 mb - 0.00 in0.0 mm 0.00 in0.0 mm
05:10 AM 72.0°F22.2°C 68.6°F20.3°C 89% Calm Calm -- 29.98 in1015.2 mb - 0.00 in0.0 mm 0.00 in0.0 mm
05:00 AM 72.1°F22.3°C 68.7°F20.4°C 89% Calm Calm -- 29.98 in1015.2 mb - 0.00 in0.0 mm 0.00 in0.0 mm
04:50 AM 72.3°F22.4°C 68.5°F20.3°C 88% Calm Calm -- 29.98 in1015.2 mb - 0.00 in0.0 mm 0.00 in0.0 mm
04:45 AM 72.3°F22.4°C 68.5°F20.3°C 88% Calm Calm -- 29.98 in1015.2 mb - 0.00 in0.0 mm 0.00 in0.0 mm
04:40 AM 72.4°F22.4°C 68.6°F20.3°C 88% Calm Calm -- 29.99 in1015.6 mb - 0.00 in0.0 mm 0.00 in0.0 mm
04:30 AM 72.5°F22.5°C 68.4°F20.2°C 87% Calm Calm -- 29.98 in1015.2 mb - 0.00 in0.0 mm 0.00 in0.0 mm
04:20 AM 72.9°F22.7°C 68.8°F20.4°C 87% Calm Calm -- 29.98 in1015.2 mb - 0.00 in0.0 mm 0.00 in0.0 mm
04:15 AM 72.9°F22.7°C 68.8°F20.4°C 87% Calm Calm -- 29.98 in1015.2 mb - 0.00 in0.0 mm 0.00 in0.0 mm
04:10 AM 72.9°F22.7°C 68.8°F20.4°C 87% Calm Calm -- 29.98 in1015.2 mb - 0.00 in0.0 mm 0.00 in0.0 mm
04:00 AM 72.8°F22.7°C 69.0°F20.6°C 88% Calm Calm -- 29.98 in1015.2 mb - 0.00 in0.0 mm 0.00 in0.0 mm
03:50 AM 72.7°F22.6°C 68.6°F20.3°C 87% Calm Calm -- 29.97 in1014.9 mb - 0.00 in0.0 mm 0.00 in0.0 mm
03:45 AM 72.7°F22.6°C 68.6°F20.3°C 87% Calm Calm -- 29.97 in1014.9 mb - 0.00 in0.0 mm 0.00 in0.0 mm
03:40 AM 72.8°F22.7°C 68.4°F20.2°C 86% Calm Calm -- 29.97 in1014.9 mb - 0.00 in0.0 mm 0.00 in0.0 mm
03:30 AM 73.0°F22.8°C 68.2°F20.1°C 85% Calm Calm -- 29.97 in1014.9 mb - 0.00 in0.0 mm 0.00 in0.0 mm
03:20 AM 73.1°F22.8°C 68.3°F20.2°C 85% Calm Calm -- 29.97 in1014.9 mb - 0.00 in0.0 mm 0.00 in0.0 mm
03:15 AM 73.2°F22.9°C 68.4°F20.2°C 85% Calm Calm -- 29.97 in1014.9 mb - 0.00 in0.0 mm 0.00 in0.0 mm
03:10 AM 73.4°F23.0°C 68.6°F20.3°C 85% Calm Calm -- 29.97 in1014.9 mb - 0.00 in0.0 mm 0.00 in0.0 mm
03:00 AM 73.5°F23.1°C 68.4°F20.2°C 84% Calm Calm -- 29.97 in1014.9 mb - 0.00 in0.0 mm 0.00 in0.0 mm
02:50 AM 73.7°F23.2°C 68.2°F20.1°C 83% Calm Calm -- 29.97 in1014.9 mb - 0.00 in0.0 mm 0.00 in0.0 mm
02:45 AM 73.9°F23.3°C 68.4°F20.2°C 83% Calm Calm -- 29.97 in1014.9 mb - 0.00 in0.0 mm 0.00 in0.0 mm
02:40 AM 74.1°F23.4°C 68.3°F20.2°C 82% Calm Calm -- 29.98 in1015.2 mb - 0.00 in0.0 mm 0.00 in0.0 mm
02:30 AM 75.1°F23.9°C 68.8°F20.4°C 81% Calm Calm -- 29.97 in1014.9 mb - 0.00 in0.0 mm 0.00 in0.0 mm
02:20 AM 75.8°F24.3°C 69.2°F20.7°C 80% Calm Calm -- 29.97 in1014.9 mb - 0.00 in0.0 mm 0.00 in0.0 mm
02:15 AM 76.0°F24.4°C 69.4°F20.8°C 80% Calm Calm -- 29.97 in1014.9 mb - 0.00 in0.0 mm 0.00 in0.0 mm
02:10 AM 76.0°F24.4°C 69.0°F20.6°C 79% Calm Calm -- 29.97 in1014.9 mb - 0.00 in0.0 mm 0.00 in0.0 mm
02:00 AM 75.9°F24.4°C 68.9°F20.5°C 79% Calm Calm 1.2 mph1.9 kmh 29.97 in1014.9 mb - 0.00 in0.0 mm 0.00 in0.0 mm
01:50 AM 75.5°F24.2°C 68.5°F20.3°C 79% Calm Calm -- 29.97 in1014.9 mb - 0.00 in0.0 mm 0.00 in0.0 mm
01:45 AM 75.4°F24.1°C 68.4°F20.2°C 79% Calm Calm -- 29.97 in1014.9 mb - 0.00 in0.0 mm 0.00 in0.0 mm
01:40 AM 75.5°F24.2°C 68.2°F20.1°C 78% Calm Calm -- 29.97 in1014.9 mb - 0.00 in0.0 mm 0.00 in0.0 mm
01:30 AM 75.8°F24.3°C 68.1°F20.1°C 77% Calm Calm -- 29.97 in1014.9 mb - 0.00 in0.0 mm 0.00 in0.0 mm
01:20 AM 76.4°F24.7°C 68.6°F20.3°C 77% Calm Calm -- 29.97 in1014.9 mb - 0.00 in0.0 mm 0.00 in0.0 mm
01:15 AM 76.6°F24.8°C 68.9°F20.5°C 77% Calm Calm -- 29.97 in1014.9 mb - 0.00 in0.0 mm 0.00 in0.0 mm
01:10 AM 76.7°F24.8°C 68.6°F20.3°C 76% Calm Calm 1.2 mph1.9 kmh 29.97 in1014.9 mb - 0.00 in0.0 mm 0.00 in0.0 mm
01:00 AM 76.6°F24.8°C 68.5°F20.3°C 76% Calm Calm -- 29.97 in1014.9 mb - 0.00 in0.0 mm 0.00 in0.0 mm
12:50 AM 77.0°F25.0°C 68.1°F20.1°C 74% Calm Calm -- 29.97 in1014.9 mb - 0.00 in0.0 mm 0.00 in0.0 mm
12:45 AM 77.3°F25.2°C 68.4°F20.2°C 74% Calm Calm -- 29.97 in1014.9 mb - 0.00 in0.0 mm 0.00 in0.0 mm
12:40 AM 77.6°F25.3°C 68.7°F20.4°C 74% Calm Calm -- 29.97 in1014.9 mb - 0.00 in0.0 mm 0.00 in0.0 mm
12:30 AM 78.1°F25.6°C 68.7°F20.4°C 73% Calm Calm -- 29.97 in1014.9 mb - 0.00 in0.0 mm 0.00 in0.0 mm
12:20 AM 78.5°F25.8°C 68.7°F20.4°C 72% Calm Calm -- 29.97 in1014.9 mb - 0.00 in0.0 mm 0.00 in0.0 mm
12:15 AM 78.7°F25.9°C 68.5°F20.3°C 71% Calm Calm -- 29.96 in1014.6 mb - 0.00 in0.0 mm 0.00 in0.0 mm
12:10 AM 78.7°F25.9°C 68.5°F20.3°C 71% Calm Calm -- 29.96 in1014.6 mb - 0.00 in0.0 mm 0.00 in0.0 mm
12:00 AM 79.1°F26.2°C 68.5°F20.3°C 70% Calm Calm -- 29.96 in1014.6 mb - 0.00 in0.0 mm 0.00 in0.0 mm